Pembroke, NC (28372)

5:41 PM EDT on June 24, 2017 (GMT -0400)
Hunter's Run | | Change Station
Active Advisory: Severe Thunderstorm Warning

Elev 175 ft 34.66 °N, 79.18 °W | Updated 18 seconds ago

Thunderstorm
Thunderstorm
78.4 °F
Feels Like 81 °F
N
11.0
Wind Variable Wind from NW
Gusts 19.0 mph

Today
High -- | Low -- °F
--% Chance of Precip.
Yesterday
High -- | Low -- °F
Precip. -- in
Pressure 29.91 in
Visibility 10.0 miles
Clouds Few 4700 ft
Mostly Cloudy 6500 ft
Mostly Cloudy 8000 ft
Heat Index 81 °F
Dew Point 75 °F
Humidity 89%
Rainfall 0.28 in
Snow Depth Not available.
6:04 AM 8:33 PM
New Moon, 1% visible
SPECI KLBT 242123Z AUTO 24010KT 10SM VCTS FEW047 BKN065 BKN080 32/23 A2991 RMK AO2 LTG DSNT W-NE T03170233
Pressure 29.91 in
Visibility 10.0 miles
Clouds Few 4700 ft
Mostly Cloudy 6500 ft
Mostly Cloudy 8000 ft
Heat Index 81 °F
Dew Point 75 °F
Humidity 89%
Rainfall 0.28 in
Snow Depth Not available.
6:04 AM 8:33 PM
New Moon, 1% visible
SPECI KLBT 242123Z AUTO 24010KT 10SM VCTS FEW047 BKN065 BKN080 32/23 A2991 RMK AO2 LTG DSNT W-NE T03170233

Get Your Daily Forecast Email!

Thanks for signing up!

Be on the lookout for a verification email in your inbox.

You'll start receiving severe weather alerts in your inbox..

×

10-Day Weather Forecast

Almanac

Astronomy

Jun. 24, 2017 Rise Set
Actual Time
Civil Twilight
Nautical Twilight
Astronomical Twilight
Moon
Length of Visible Light
Length of Day
Tomorrow will be .
, % of the Moon is Illuminated

Today's Extremes

State Highs State Lows

Community

WunderPhotos

Category 6

Welcome to Category 6. This is the collective home for Weather Underground's featured writeups by Dr. Jeff Masters (right), Bob Henson (left), Chris Burt, and other regular contributors.

Nearby

Air Quality

  Air Quality AQ Index Pollutant
Not available.

Snow Depth

Station Depth Elevation

Earthquake Activity

City Distance Mag. Time & Date
Minimum magnitude displayed is 2.5.

Coastal Water Temperatures

Place Temperature

Stations

Nearby Weather Stations

Station Location Temp. Windchill Dew Point Humidity Wind Precip. Elev Updated Type
                   

Watches & Warnings

Severe Thunderstorm Warning
Issued: 5:36 PM EDT Jun. 24, 2017 – National Weather Service

... The Severe Thunderstorm Warning for northeastern Robeson County
will expire at 545 PM EDT...

the storm which prompted the warning has moved out of the area.
Therefore the warning will be allowed to expire. However gusty winds
and heavy rain are still possible with this thunderstorm.

To report severe weather, contact your nearest law enforcement
agency. They will relay your report to the National Weather Service
Wilmington.

Lat... Lon 3491 7896 3489 7893 3487 7892 3486 7893
      3483 7890 3482 7890 3481 7889 3477 7886
      3475 7909 3487 7915 3495 7903
time... Mot... loc 2135z 262deg 53kt 3492 7845


Mbb